Time;durP1;ratioP1;P1;durP2;ratioP2;P2;SDS_P1;SDS_P2;PMS_P1;PMS_P2;Temp;Humidity;BMP_temperature;BMP_pressure;BME280_temperature;BME280_humidity;BME280_pressure;Samples;Min_cycle;Max_cycle;Signal;HPM_P1;HPM_P2
2024/04/05 00:02:01;;;;;;;2.53;0.60;;;17.40;74.80;;;;;;2325223;54;21565;-69
2024/04/05 00:04:28;;;;;;;2.37;0.68;;;17.40;74.80;;;;;;2325104;54;20973;-70
2024/04/05 00:06:55;;;;;;;2.75;0.80;;;17.40;74.80;;;;;;2325527;54;21033;-71
2024/04/05 00:09:22;;;;;;;2.37;0.50;;;17.40;74.80;;;;;;2325429;54;20997;-70
2024/04/05 00:11:49;;;;;;;1.92;0.60;;;17.40;74.70;;;;;;2319302;54;21010;-69
2024/04/05 00:14:16;;;;;;;1.37;0.50;;;17.40;74.80;;;;;;2318085;54;21077;-70
2024/04/05 00:16:42;;;;;;;1.83;0.60;;;17.40;74.80;;;;;;2325424;54;20922;-69
2024/04/05 00:19:08;;;;;;;2.33;0.70;;;17.40;74.80;;;;;;2325482;54;21447;-71
2024/04/05 00:21:37;;;;;;;3.90;1.02;;;17.40;74.80;;;;;;2325247;54;21010;-70
2024/04/05 00:24:03;;;;;;;2.90;0.93;;;17.40;74.80;;;;;;2325044;54;20945;-70
2024/04/05 00:26:29;;;;;;;2.60;0.75;;;17.40;74.80;;;;;;2325303;54;21467;-70
2024/04/05 00:28:55;;;;;;;2.60;0.70;;;17.40;74.90;;;;;;2325864;54;21028;-70
2024/04/05 00:31:22;;;;;;;2.83;0.80;;;17.40;74.90;;;;;;2325182;54;21470;-71
2024/04/05 00:33:48;;;;;;;2.10;0.77;;;17.40;74.90;;;;;;2321596;54;21055;-71
2024/04/05 00:36:15;;;;;;;2.40;0.68;;;17.40;74.80;;;;;;2313723;54;21233;-70
2024/04/05 00:38:41;;;;;;;3.22;0.82;;;17.40;74.90;;;;;;2324963;54;20985;-71
2024/04/05 00:41:07;;;;;;;3.67;0.70;;;17.40;74.80;;;;;;2325187;54;21003;-71
2024/04/05 00:43:35;;;;;;;2.45;0.68;;;17.40;74.80;;;;;;2312861;54;20936;-70
2024/04/05 00:46:02;;;;;;;3.00;0.60;;;17.30;74.80;;;;;;2325018;54;21013;-70
2024/04/05 00:48:28;;;;;;;2.17;0.80;;;17.40;74.80;;;;;;2324354;54;20993;-71
2024/04/05 00:50:56;;;;;;;1.58;0.62;;;17.30;74.80;;;;;;2325556;54;21450;-70
2024/04/05 00:53:24;;;;;;;2.62;0.70;;;17.30;74.80;;;;;;2318914;54;21666;-70
2024/04/05 00:55:56;;;;;;;1.95;0.70;;;17.30;74.70;;;;;;2319538;54;21445;-70
2024/04/05 00:58:22;;;;;;;2.50;0.70;;;17.30;74.60;;;;;;2325103;54;21806;-70
2024/04/05 01:00:48;;;;;;;2.53;0.80;;;17.30;74.90;;;;;;2320916;54;21227;-71
2024/04/05 01:03:15;;;;;;;2.25;0.68;;;17.30;74.90;;;;;;2317932;54;21166;-70
2024/04/05 01:05:41;;;;;;;2.22;0.75;;;17.30;74.90;;;;;;2325748;54;20978;-69
2024/04/05 01:08:08;;;;;;;2.75;0.70;;;17.30;75.60;;;;;;2326106;54;21012;-70
2024/04/05 01:10:37;;;;;;;1.98;0.68;;;17.20;74.70;;;;;;2325755;54;20933;-70
2024/04/05 01:13:04;;;;;;;2.20;0.65;;;17.30;74.80;;;;;;2325442;54;20961;-68
2024/04/05 01:15:31;;;;;;;1.40;0.50;;;17.30;74.80;;;;;;2325908;54;21036;-71
2024/04/05 01:17:58;;;;;;;2.70;0.80;;;17.30;74.80;;;;;;2325847;54;21773;-70
2024/04/05 01:20:26;;;;;;;2.25;0.70;;;17.30;74.80;;;;;;2324863;54;21124;-70
2024/04/05 01:22:53;;;;;;;2.90;0.77;;;17.30;74.70;;;;;;2326803;54;20961;-70
2024/04/05 01:25:23;;;;;;;1.77;0.65;;;17.30;74.80;;;;;;2325176;54;20953;-70
2024/04/05 01:27:49;;;;;;;1.95;0.68;;;17.30;74.60;;;;;;2329596;54;20958;-70
2024/04/05 01:30:15;;;;;;;1.30;0.40;;;17.30;74.80;;;;;;2313406;54;21775;-71
2024/04/05 01:32:56;;;;;;;2.40;0.60;;;17.30;74.80;;;;;;2325034;54;20948;-69
2024/04/05 01:35:23;;;;;;;1.73;0.65;;;17.30;74.10;;;;;;2324221;54;21016;-71
2024/04/05 01:37:49;;;;;;;2.30;0.75;;;17.30;74.70;;;;;;2326035;54;20953;-70
2024/04/05 01:40:17;;;;;;;1.62;0.60;;;17.30;74.80;;;;;;2324855;54;21265;-70
2024/04/05 01:42:44;;;;;;;1.80;0.70;;;17.30;74.80;;;;;;2325117;54;21025;-70
2024/04/05 01:45:10;;;;;;;1.12;0.50;;;17.30;74.80;;;;;;2324647;54;20957;-70
2024/04/05 01:47:37;;;;;;;2.00;0.60;;;17.20;74.70;;;;;;2325062;54;20988;-72
2024/04/05 01:50:06;;;;;;;1.42;0.55;;;17.30;74.90;;;;;;2325247;54;20929;-69
2024/04/05 01:52:32;;;;;;;2.22;0.60;;;17.30;74.70;;;;;;2323863;54;21239;-70
2024/04/05 01:55:00;;;;;;;2.03;0.68;;;17.30;74.90;;;;;;2315906;54;20945;-70
2024/04/05 01:57:26;;;;;;;5.28;1.00;;;17.20;74.70;;;;;;2324984;54;20973;-70
2024/04/05 01:59:54;;;;;;;1.95;0.68;;;17.30;74.90;;;;;;2325879;54;21008;-71
2024/04/05 02:02:24;;;;;;;2.87;0.80;;;17.30;74.70;;;;;;2325098;54;20957;-70
2024/04/05 02:04:52;;;;;;;2.97;0.77;;;17.30;74.70;;;;;;2326236;54;20977;-70
2024/04/05 02:07:20;;;;;;;2.97;0.80;;;17.30;74.80;;;;;;2325006;54;20969;-71
2024/04/05 02:09:47;;;;;;;2.12;0.75;;;17.30;74.70;;;;;;2325865;54;21076;-70
2024/04/05 02:12:14;;;;;;;3.40;0.82;;;17.30;74.80;;;;;;2324082;54;21714;-71
2024/04/05 02:14:41;;;;;;;3.00;0.60;;;17.30;74.80;;;;;;2324270;54;21494;-70
2024/04/05 02:17:07;;;;;;;2.95;0.80;;;17.30;74.80;;;;;;2326808;54;21309;-69
2024/04/05 02:19:34;;;;;;;3.78;1.00;;;17.30;74.90;;;;;;2327089;54;20982;-70
2024/04/05 02:22:00;;;;;;;2.78;0.77;;;17.30;74.90;;;;;;2312543;54;21470;-70
2024/04/05 02:24:26;;;;;;;2.60;0.80;;;17.40;74.90;;;;;;2315322;54;21031;-71
2024/04/05 02:26:52;;;;;;;2.47;0.65;;;17.30;74.90;;;;;;2322815;54;21257;-71
2024/04/05 02:29:20;;;;;;;2.78;0.68;;;17.30;74.90;;;;;;2325686;54;20965;-71
2024/04/05 02:31:48;;;;;;;2.37;0.82;;;17.30;74.90;;;;;;2326104;54;20950;-71
2024/04/05 02:34:17;;;;;;;3.30;1.30;;;17.30;74.90;;;;;;2325945;54;20928;-71
2024/04/05 02:36:43;;;;;;;7.90;3.53;;;17.30;74.90;;;;;;2325408;54;21072;-71
2024/04/05 02:39:10;;;;;;;11.57;5.03;;;17.30;74.80;;;;;;2326061;54;22303;-69
2024/04/05 02:41:37;;;;;;;48.95;19.02;;;17.30;74.80;;;;;;2324900;54;21677;-71
2024/04/05 02:44:03;;;;;;;119.37;42.28;;;17.30;74.80;;;;;;2325933;54;20957;-70
2024/04/05 02:46:29;;;;;;;92.65;33.22;;;17.30;74.80;;;;;;2324311;54;20990;-71
2024/04/05 02:48:56;;;;;;;78.72;29.95;;;17.30;74.80;;;;;;2325986;54;20941;-70
2024/04/05 02:51:23;;;;;;;55.10;22.45;;;17.30;74.80;;;;;;2324958;54;20941;-71
2024/04/05 02:53:49;;;;;;;39.58;16.60;;;17.30;74.80;;;;;;2317331;54;21738;-71
2024/04/05 02:56:16;;;;;;;31.75;14.05;;;17.30;74.80;;;;;;2299668;54;21399;-71
2024/04/05 02:58:42;;;;;;;34.78;14.40;;;17.30;74.90;;;;;;2325771;54;21692;-70
2024/04/05 03:01:09;;;;;;;32.97;14.27;;;17.30;74.90;;;;;;2315205;54;21063;-71
2024/04/05 03:03:35;;;;;;;28.50;13.55;;;17.30;74.90;;;;;;2322922;54;21000;-71
2024/04/05 03:06:02;;;;;;;21.70;10.68;;;17.30;74.90;;;;;;2324174;54;21456;-70
2024/04/05 03:08:28;;;;;;;15.38;7.75;;;17.30;74.80;;;;;;2314680;54;21585;-71
2024/04/05 03:10:54;;;;;;;14.27;6.62;;;17.30;74.80;;;;;;2325862;54;20985;-70
2024/04/05 03:13:20;;;;;;;8.75;4.55;;;17.30;74.80;;;;;;2325233;54;21028;-70
2024/04/05 03:15:47;;;;;;;6.65;3.55;;;17.30;74.80;;;;;;2325237;54;20936;-70
2024/04/05 03:18:14;;;;;;;6.87;3.00;;;17.30;74.70;;;;;;2325346;54;21459;-70
2024/04/05 03:20:42;;;;;;;4.53;2.10;;;17.30;75.40;;;;;;2325310;54;20973;-70
2024/04/05 03:23:10;;;;;;;3.47;2.03;;;17.30;74.60;;;;;;2323266;54;21832;-69
2024/04/05 03:25:42;;;;;;;3.95;1.58;;;17.30;74.70;;;;;;2317033;54;21076;-71
2024/04/05 03:28:08;;;;;;;3.85;1.80;;;17.30;74.50;;;;;;2326120;54;21352;-70
2024/04/05 03:30:35;;;;;;;2.33;1.17;;;17.20;74.50;;;;;;2325041;54;21108;-69
2024/04/05 03:33:04;;;;;;;5.97;1.40;;;17.20;74.50;;;;;;2324434;54;21414;-70
2024/04/05 03:35:31;;;;;;;3.60;1.40;;;17.30;74.60;;;;;;2300513;54;21023;-70
2024/04/05 03:37:57;;;;;;;2.55;1.12;;;17.30;74.60;;;;;;2309680;54;20944;-70
2024/04/05 03:40:24;;;;;;;3.35;1.10;;;17.30;74.60;;;;;;2325416;54;21026;-70
2024/04/05 03:42:50;;;;;;;2.70;1.10;;;17.20;74.50;;;;;;2325935;54;20921;-70
2024/04/05 03:45:16;;;;;;;3.10;1.10;;;17.20;74.50;;;;;;2326071;54;21005;-69
2024/04/05 03:47:43;;;;;;;3.22;1.00;;;17.20;74.50;;;;;;2322215;54;20967;-71
2024/04/05 03:50:13;;;;;;;2.20;0.90;;;17.20;74.50;;;;;;2315654;54;20937;-70
2024/04/05 03:52:40;;;;;;;3.25;0.90;;;17.20;74.30;;;;;;2324171;54;21068;-70
2024/04/05 03:55:06;;;;;;;2.28;0.80;;;17.20;74.50;;;;;;2317173;54;21793;-71
2024/04/05 03:57:32;;;;;;;2.33;0.70;;;17.20;74.50;;;;;;2321951;54;21278;-72
2024/04/05 03:59:59;;;;;;;3.20;0.80;;;17.20;74.50;;;;;;2325330;54;21262;-69
2024/04/05 04:02:27;;;;;;;1.70;0.70;;;17.20;74.50;;;;;;2324788;54;21230;-71
2024/04/05 04:04:54;;;;;;;2.08;0.73;;;17.10;74.40;;;;;;2325712;54;20986;-70
2024/04/05 04:07:20;;;;;;;2.08;0.60;;;17.10;74.40;;;;;;2325813;54;20960;-69
2024/04/05 04:09:46;;;;;;;1.85;0.57;;;17.10;74.40;;;;;;2327158;54;21794;-70
2024/04/05 04:12:13;;;;;;;1.40;0.62;;;17.10;74.40;;;;;;2325255;54;20937;-70
2024/04/05 04:14:41;;;;;;;1.42;0.50;;;17.10;74.40;;;;;;2325782;54;21033;-69
2024/04/05 04:17:08;;;;;;;2.97;0.95;;;17.00;74.30;;;;;;2326415;54;20954;-70
2024/04/05 04:19:36;;;;;;;4.22;0.73;;;17.10;74.40;;;;;;2323551;54;20930;-70
2024/04/05 04:22:05;;;;;;;1.52;0.60;;;17.10;74.40;;;;;;2325561;54;20953;-70
2024/04/05 04:24:32;;;;;;;1.80;0.60;;;17.00;74.30;;;;;;2324816;54;20969;-69
2024/04/05 04:26:58;;;;;;;1.90;0.70;;;17.00;74.30;;;;;;2325018;54;20941;-70
2024/04/05 04:29:25;;;;;;;1.90;0.70;;;17.00;74.30;;;;;;2320936;54;21046;-69
2024/04/05 04:31:51;;;;;;;2.83;0.80;;;17.00;74.30;;;;;;2316444;54;21818;-70
2024/04/05 04:34:18;;;;;;;2.50;0.80;;;17.00;74.30;;;;;;2325540;54;20941;-69
2024/04/05 04:36:44;;;;;;;2.22;0.85;;;17.00;74.30;;;;;;2324179;54;20949;-70
2024/04/05 04:39:11;;;;;;;1.85;0.75;;;17.00;74.30;;;;;;2325340;54;21017;-70
2024/04/05 04:41:37;;;;;;;1.87;0.80;;;16.90;74.30;;;;;;2324640;54;20934;-70
2024/04/05 04:44:06;;;;;;;1.65;0.70;;;16.90;74.30;;;;;;2325407;54;20921;-70
2024/04/05 04:46:33;;;;;;;2.85;0.80;;;16.90;74.30;;;;;;2323894;54;21360;-68
2024/04/05 04:49:00;;;;;;;3.25;1.10;;;16.90;74.30;;;;;;2324903;54;21076;-70
2024/04/05 04:51:26;;;;;;;3.83;1.33;;;16.90;74.20;;;;;;2324760;54;20929;-70
2024/04/05 04:53:54;;;;;;;3.35;1.00;;;16.90;74.30;;;;;;2325582;54;21106;-71
2024/04/05 04:56:20;;;;;;;2.20;0.90;;;16.90;74.30;;;;;;2325442;54;21867;-70
2024/04/05 04:58:49;;;;;;;2.97;0.90;;;16.80;74.20;;;;;;2325733;54;21029;-71
2024/04/05 05:01:16;;;;;;;32.97;17.05;;;16.80;74.20;;;;;;2324729;54;20942;-71
2024/04/05 05:03:42;;;;;;;42.95;20.42;;;16.80;74.20;;;;;;2324649;54;21597;-70
2024/04/05 05:06:10;;;;;;;43.05;18.48;;;16.80;74.20;;;;;;2325893;54;21024;-70
2024/04/05 05:08:36;;;;;;;32.30;14.10;;;16.80;74.20;;;;;;2324997;54;21293;-71
2024/04/05 05:11:05;;;;;;;30.40;13.57;;;16.70;74.20;;;;;;2325214;54;20961;-69
2024/04/05 05:13:32;;;;;;;25.00;12.43;;;16.70;74.10;;;;;;2324502;54;20934;-71
2024/04/05 05:15:59;;;;;;;20.80;9.80;;;16.70;74.10;;;;;;2324719;54;20965;-70
2024/04/05 05:18:25;;;;;;;15.60;8.15;;;16.70;74.10;;;;;;2325141;54;20961;-69
2024/04/05 05:20:54;;;;;;;10.68;5.30;;;16.70;74.10;;;;;;2325372;54;21189;-69
2024/04/05 05:23:22;;;;;;;7.60;3.67;;;16.60;74.00;;;;;;2325284;54;21032;-71
2024/04/05 05:25:48;;;;;;;6.25;2.53;;;16.60;74.10;;;;;;2325393;54;21178;-69
2024/04/05 05:28:15;;;;;;;4.32;1.90;;;16.60;74.00;;;;;;2325359;54;21979;-69
2024/04/05 05:30:43;;;;;;;4.40;1.70;;;16.60;74.10;;;;;;2324961;54;20933;-69
2024/04/05 05:33:14;;;;;;;3.67;1.33;;;16.60;74.10;;;;;;2325078;54;20949;-71
2024/04/05 05:35:40;;;;;;;2.40;1.00;;;16.50;73.70;;;;;;2324893;54;20973;-69
2024/04/05 05:38:07;;;;;;;2.67;1.00;;;16.50;73.90;;;;;;2325121;54;21002;-70
2024/04/05 05:40:33;;;;;;;2.15;0.80;;;16.50;73.80;;;;;;2324863;54;21198;-69
2024/04/05 05:42:59;;;;;;;2.30;0.90;;;16.50;73.90;;;;;;2324937;54;21732;-71
2024/04/05 05:45:26;;;;;;;2.30;1.00;;;16.40;73.80;;;;;;2325536;54;20949;-69
2024/04/05 05:47:53;;;;;;;2.72;1.10;;;16.40;73.90;;;;;;2325439;54;20957;-69
2024/04/05 05:50:20;;;;;;;2.25;1.00;;;16.40;73.90;;;;;;2324923;54;21217;-69
2024/04/05 05:52:46;;;;;;;3.65;1.20;;;16.30;73.80;;;;;;2317359;54;21025;-70
2024/04/05 05:55:13;;;;;;;3.65;1.60;;;16.30;73.80;;;;;;2325959;54;21029;-71
2024/04/05 05:57:39;;;;;;;2.72;1.27;;;16.30;73.90;;;;;;2324785;54;20942;-69
2024/04/05 06:00:09;;;;;;;2.95;1.30;;;16.30;74.10;;;;;;2325797;54;20998;-70
2024/04/05 06:02:37;;;;;;;3.80;1.48;;;16.30;74.20;;;;;;2295018;54;21417;-69
2024/04/05 06:05:07;;;;;;;4.55;1.50;;;16.30;74.40;;;;;;2325675;54;21321;-71
2024/04/05 06:07:36;;;;;;;4.30;1.75;;;16.30;74.50;;;;;;2324909;54;21781;-72
2024/04/05 06:10:04;;;;;;;4.25;2.08;;;16.30;74.80;;;;;;2325395;54;20985;-71
2024/04/05 06:12:30;;;;;;;4.25;1.80;;;16.20;74.80;;;;;;2325501;54;20961;-69
2024/04/05 06:14:57;;;;;;;3.58;1.60;;;16.30;75.10;;;;;;2325488;54;21029;-69
2024/04/05 06:17:24;;;;;;;4.20;2.03;;;16.30;75.10;;;;;;2324997;54;21324;-71
2024/04/05 06:20:00;;;;;;;3.05;1.35;;;16.30;75.20;;;;;;2325161;54;20925;-71
2024/04/05 06:22:27;;;;;;;3.50;1.27;;;16.40;75.10;;;;;;2324990;54;21104;-69
2024/04/05 06:24:54;;;;;;;3.40;1.20;;;16.40;75.40;;;;;;2313756;54;21019;-71
2024/04/05 06:27:26;;;;;;;4.97;1.20;;;16.40;75.40;;;;;;2325960;54;20982;-70
2024/04/05 06:29:54;;;;;;;2.30;1.00;;;16.40;75.40;;;;;;2325518;54;20973;-72
2024/04/05 06:32:20;;;;;;;4.07;1.42;;;16.50;75.60;;;;;;2325535;54;21306;-69
2024/04/05 06:34:50;;;;;;;3.67;1.40;;;16.50;75.60;;;;;;2325298;54;20989;-70
2024/04/05 06:37:16;;;;;;;4.00;2.00;;;16.50;76.40;;;;;;2325288;54;20921;-71
2024/04/05 06:39:42;;;;;;;3.90;2.00;;;16.50;75.80;;;;;;2324580;54;20926;-71
2024/04/05 06:42:09;;;;;;;4.57;2.40;;;16.60;76.00;;;;;;2325266;54;20929;-71
2024/04/05 06:44:36;;;;;;;4.10;2.50;;;16.60;76.10;;;;;;2324559;54;20918;-71
2024/04/05 06:47:06;;;;;;;6.22;3.12;;;16.60;76.10;;;;;;2325859;54;20932;-70
2024/04/05 06:49:32;;;;;;;4.65;2.97;;;16.70;76.20;;;;;;2312013;54;21564;-71
2024/04/05 06:52:04;;;;;;;4.60;2.40;;;16.70;76.40;;;;;;2326613;54;21512;-71
2024/04/05 06:54:31;;;;;;;3.67;1.95;;;16.80;76.50;;;;;;2315435;54;20950;-70
2024/04/05 06:56:58;;;;;;;3.58;1.80;;;16.80;76.60;;;;;;2324885;54;20946;-70
2024/04/05 06:59:24;;;;;;;5.10;1.50;;;16.80;76.60;;;;;;2324860;54;21001;-70
2024/04/05 07:01:54;;;;;;;3.72;1.85;;;16.90;76.80;;;;;;2325053;54;21005;-71
2024/04/05 07:04:23;;;;;;;3.62;1.83;;;16.90;76.80;;;;;;2325033;54;20925;-70
2024/04/05 07:06:50;;;;;;;6.03;2.08;;;17.00;76.90;;;;;;2325411;54;20945;-70
2024/04/05 07:09:37;;;;;;;5.32;2.30;;;17.10;77.10;;;;;;2327022;54;21020;-71
2024/04/05 07:12:04;;;;;;;4.15;1.98;;;17.10;77.00;;;;;;2325845;54;20964;-70
2024/04/05 07:14:31;;;;;;;3.83;1.90;;;17.20;77.20;;;;;;2325020;54;21109;-71
2024/04/05 07:16:58;;;;;;;4.62;1.98;;;17.30;77.30;;;;;;2327457;54;20941;-72
2024/04/05 07:19:27;;;;;;;4.18;1.73;;;17.30;77.40;;;;;;2313097;54;20938;-70
2024/04/05 07:21:56;;;;;;;5.35;1.98;;;17.40;78.20;;;;;;2304469;54;21002;-70
2024/04/05 07:24:22;;;;;;;4.25;1.98;;;17.40;77.50;;;;;;2320168;54;21352;-71
2024/04/05 07:26:50;;;;;;;5.37;1.95;;;17.50;77.60;;;;;;2325441;54;21182;-70
2024/04/05 07:29:16;;;;;;;5.57;2.08;;;17.60;77.70;;;;;;2325632;54;20961;-71
2024/04/05 07:31:42;;;;;;;4.22;1.65;;;17.60;77.70;;;;;;2325292;54;20918;-72
2024/04/05 07:34:11;;;;;;;3.95;1.20;;;17.70;77.80;;;;;;2317401;54;20965;-72
2024/04/05 07:36:40;;;;;;;2.35;1.00;;;17.80;77.80;;;;;;2325523;54;20930;-70
2024/04/05 07:39:08;;;;;;;2.40;1.10;;;17.80;78.10;;;;;;2325881;54;21241;-72
2024/04/05 07:41:34;;;;;;;5.00;1.23;;;17.90;78.40;;;;;;2325687;54;21016;-71
2024/04/05 07:44:02;;;;;;;2.53;0.90;;;18.00;78.40;;;;;;2325138;54;20913;-71
2024/04/05 07:46:28;;;;;;;3.15;1.15;;;18.10;78.40;;;;;;2323718;54;20975;-71
2024/04/05 07:48:54;;;;;;;3.22;1.20;;;18.10;78.40;;;;;;2314992;54;20941;-71
2024/04/05 07:51:21;;;;;;;4.10;1.30;;;18.20;78.50;;;;;;2325612;54;20973;-71
2024/04/05 07:53:47;;;;;;;4.45;1.27;;;18.30;78.60;;;;;;2325333;54;20940;-70
2024/04/05 07:56:14;;;;;;;4.00;1.23;;;18.40;78.80;;;;;;2326591;54;21223;-72
2024/04/05 07:58:40;;;;;;;4.00;1.08;;;18.40;79.00;;;;;;2313310;54;20977;-71
2024/04/05 08:01:10;;;;;;;3.20;1.08;;;18.50;79.10;;;;;;2325855;54;20926;-72
2024/04/05 08:03:36;;;;;;;3.55;1.00;;;18.60;79.20;;;;;;2325081;54;21020;-71
2024/04/05 08:06:02;;;;;;;3.62;1.20;;;18.70;79.30;;;;;;2325330;54;20958;-70
2024/04/05 08:08:29;;;;;;;2.85;1.00;;;18.80;79.40;;;;;;2325733;54;20965;-72
2024/04/05 08:11:01;;;;;;;4.85;1.30;;;18.90;79.40;;;;;;2325488;54;21435;-72
2024/04/05 08:13:28;;;;;;;2.90;1.10;;;19.00;78.90;;;;;;2325568;54;21010;-71
2024/04/05 08:15:54;;;;;;;3.25;1.27;;;19.10;79.20;;;;;;2325825;54;21001;-71
2024/04/05 08:18:21;;;;;;;2.72;1.02;;;19.10;78.90;;;;;;2325321;54;21753;-72
2024/04/05 08:20:50;;;;;;;2.50;1.10;;;19.20;78.80;;;;;;2320704;54;20994;-72
2024/04/05 08:23:16;;;;;;;3.00;0.90;;;19.30;78.50;;;;;;2296916;54;21091;-71
2024/04/05 08:25:43;;;;;;;3.40;1.10;;;19.30;78.90;;;;;;2325327;54;21517;-71
2024/04/05 08:28:12;;;;;;;1.80;0.80;;;19.40;79.20;;;;;;2326543;54;20937;-71
2024/04/05 08:30:38;;;;;;;2.75;1.00;;;19.50;79.40;;;;;;2325421;54;21024;-72
2024/04/05 08:33:09;;;;;;;2.37;0.80;;;19.60;79.50;;;;;;2325270;54;20966;-72
2024/04/05 08:35:36;;;;;;;2.50;0.98;;;19.70;79.60;;;;;;2325237;54;21656;-71
2024/04/05 08:38:02;;;;;;;2.12;0.90;;;19.80;79.50;;;;;;2312824;54;21015;-71
2024/04/05 08:40:29;;;;;;;2.40;1.00;;;19.90;79.60;;;;;;2325972;54;21435;-72
2024/04/05 08:42:59;;;;;;;2.33;0.85;;;19.90;79.70;;;;;;2325262;54;21047;-72
2024/04/05 08:45:30;;;;;;;2.50;0.98;;;20.00;79.60;;;;;;2326119;54;21721;-71
2024/04/05 08:47:57;;;;;;;3.50;1.00;;;20.10;79.80;;;;;;2325570;54;20953;-72
2024/04/05 08:50:26;;;;;;;4.45;0.90;;;20.20;80.00;;;;;;2325723;54;21691;-73
2024/04/05 08:52:55;;;;;;;2.80;1.08;;;20.30;80.10;;;;;;2325206;54;21716;-72
2024/04/05 08:55:21;;;;;;;3.25;1.30;;;20.50;80.30;;;;;;2328462;54;20992;-72
2024/04/05 08:57:48;;;;;;;3.42;1.30;;;20.50;80.60;;;;;;2310205;54;20941;-71
2024/04/05 09:00:17;;;;;;;6.00;1.70;;;20.70;80.90;;;;;;2298384;54;20996;-72
2024/04/05 09:02:44;;;;;;;4.18;1.45;;;20.80;81.20;;;;;;2314564;54;21001;-72
2024/04/05 09:05:13;;;;;;;2.87;1.20;;;20.90;81.50;;;;;;2311122;54;21013;-73
2024/04/05 09:07:39;;;;;;;3.90;1.30;;;21.10;81.80;;;;;;2298852;54;20973;-72
2024/04/05 09:10:14;;;;;;;4.70;1.40;;;21.20;82.20;;;;;;2294813;54;21002;-72
2024/04/05 09:12:50;;;;;;;4.85;1.52;;;21.40;81.30;;;;;;2292377;54;21408;-72
2024/04/05 09:15:17;;;;;;;3.00;1.10;;;21.50;81.50;;;;;;2290339;54;20951;-74
2024/04/05 09:17:50;;;;;;;4.03;1.10;;;21.70;82.70;;;;;;2319583;54;21661;-73
2024/04/05 09:20:24;;;;;;;2.67;0.90;;;21.90;81.50;;;;;;2325749;54;21045;-72
2024/04/05 09:23:05;;;;;;;2.75;1.08;;;22.00;81.20;;;;;;2324968;54;20917;-74
2024/04/05 09:25:32;;;;;;;2.50;1.00;;;22.20;79.80;;;;;;2325342;54;20997;-72
2024/04/05 09:28:08;;;;;;;2.58;0.88;;;22.40;81.50;;;;;;2320603;54;20939;-73
2024/04/05 09:30:35;;;;;;;2.37;1.08;;;22.60;78.90;;;;;;2320185;54;21716;-71
2024/04/05 09:33:01;;;;;;;2.42;0.90;;;22.70;80.60;;;;;;2325437;54;21391;-72
2024/04/05 09:35:29;;;;;;;2.58;0.85;;;22.90;80.80;;;;;;2324635;54;20999;-71
2024/04/05 09:37:55;;;;;;;2.85;0.90;;;23.00;80.00;;;;;;2314038;54;20953;-73
2024/04/05 09:40:23;;;;;;;3.20;0.62;;;23.10;79.50;;;;;;2325692;54;21261;-72
2024/04/05 09:42:53;;;;;;;1.90;0.60;;;23.20;79.30;;;;;;2294736;55;20997;-71
2024/04/05 09:45:25;;;;;;;2.97;0.70;;;23.30;77.70;;;;;;2325891;54;20974;-70
2024/04/05 09:47:52;;;;;;;3.20;0.88;;;23.40;76.60;;;;;;2325557;54;20961;-70
2024/04/05 09:50:21;;;;;;;2.25;0.55;;;23.50;77.40;;;;;;2325974;54;21043;-70
2024/04/05 09:52:52;;;;;;;1.62;0.60;;;23.60;76.40;;;;;;2314230;54;21251;-71
2024/04/05 09:55:28;;;;;;;2.25;0.60;;;23.60;74.80;;;;;;2536488;54;21509;-71
2024/04/05 09:57:55;;;;;;;1.92;0.70;;;23.70;74.50;;;;;;2309704;54;21010;-71
2024/04/05 10:00:32;;;;;;;1.42;0.50;;;23.70;75.20;;;;;;2299204;54;20960;-72
2024/04/05 10:02:58;;;;;;;1.40;0.55;;;23.70;74.80;;;;;;2298750;54;21095;-70
2024/04/05 10:05:29;;;;;;;2.37;0.70;;;23.70;74.50;;;;;;2299255;55;20959;-71
2024/04/05 10:07:56;;;;;;;2.03;0.52;;;23.70;73.10;;;;;;2316644;54;21032;-72
2024/04/05 10:10:34;;;;;;;4.10;0.45;;;23.80;74.00;;;;;;2325750;54;20930;-70
2024/04/05 10:13:25;;;;;;;2.87;0.70;;;23.80;71.50;;;;;;2323535;54;20956;-71
2024/04/05 10:15:57;;;;;;;2.00;0.60;;;23.80;70.50;;;;;;2295762;55;21754;-71
2024/04/05 10:18:25;;;;;;;1.23;0.50;;;23.80;72.70;;;;;;2317747;54;20996;-71
2024/04/05 10:21:09;;;;;;;1.40;0.50;;;23.80;73.50;;;;;;2323128;54;21026;-70
2024/04/05 10:23:39;;;;;;;2.12;0.75;;;23.90;72.60;;;;;;2298978;54;21575;-71
2024/04/05 10:26:11;;;;;;;2.10;0.62;;;23.90;74.90;;;;;;2283986;55;20971;-70
2024/04/05 10:28:38;;;;;;;1.67;0.62;;;24.00;74.60;;;;;;2297283;54;21451;-71
2024/04/05 10:31:10;;;;;;;2.03;0.80;;;24.00;75.90;;;;;;2282599;54;21014;-72
2024/04/05 10:33:39;;;;;;;3.08;0.98;;;24.20;76.00;;;;;;2299275;55;20955;-71
2024/04/05 10:36:09;;;;;;;2.62;0.90;;;24.20;75.60;;;;;;2300247;54;21536;-71
2024/04/05 10:38:36;;;;;;;1.75;0.60;;;24.30;75.70;;;;;;2298820;54;21202;-71
2024/04/05 10:41:05;;;;;;;1.45;0.60;;;24.40;75.90;;;;;;2299695;54;21005;-72
2024/04/05 10:43:32;;;;;;;1.95;0.60;;;24.50;75.70;;;;;;2299751;54;21802;-72
2024/04/05 10:46:01;;;;;;;1.85;0.50;;;24.60;75.70;;;;;;2296839;55;21315;-71
2024/04/05 10:48:35;;;;;;;2.20;0.68;;;24.70;75.40;;;;;;2294474;54;20937;-71
2024/04/05 10:51:04;;;;;;;2.22;0.50;;;24.80;75.20;;;;;;2299542;54;20944;-70
2024/04/05 10:53:31;;;;;;;2.03;0.80;;;24.90;74.40;;;;;;2298724;54;21024;-72
2024/04/05 10:55:57;;;;;;;1.87;0.60;;;25.00;74.70;;;;;;2298647;54;21025;-71
2024/04/05 10:58:26;;;;;;;2.10;0.60;;;25.00;73.30;;;;;;2318346;54;21304;-72
2024/04/05 11:00:52;;;;;;;1.33;0.50;;;25.00;72.90;;;;;;2314174;54;20951;-71
2024/04/05 11:03:20;;;;;;;2.67;0.60;;;25.10;73.10;;;;;;2324645;55;21491;-70
2024/04/05 11:05:46;;;;;;;1.98;0.80;;;25.10;73.30;;;;;;2326077;55;21007;-71
2024/04/05 11:08:15;;;;;;;2.03;0.60;;;25.20;73.40;;;;;;2325540;55;20923;-70
2024/04/05 11:10:43;;;;;;;1.85;0.68;;;25.20;73.20;;;;;;2326654;55;21477;-70
2024/04/05 11:13:15;;;;;;;1.67;0.55;;;25.20;73.50;;;;;;2324796;55;20928;-71
2024/04/05 11:15:44;;;;;;;1.35;0.60;;;25.20;70.30;;;;;;2325080;55;21784;-71
2024/04/05 11:18:11;;;;;;;2.37;0.80;;;25.30;71.20;;;;;;2319241;54;21011;-70
2024/04/05 11:20:39;;;;;;;1.62;0.50;;;25.30;72.20;;;;;;2325747;55;20975;-71
2024/04/05 11:23:07;;;;;;;1.70;0.60;;;25.30;72.40;;;;;;2325374;55;21355;-71
2024/04/05 11:25:34;;;;;;;2.12;0.93;;;25.40;72.40;;;;;;2325175;55;20956;-71
2024/04/05 11:28:14;;;;;;;2.70;0.85;;;25.40;72.30;;;;;;2298284;54;21358;-71
2024/04/05 11:30:41;;;;;;;1.08;0.47;;;25.40;68.60;;;;;;2297997;54;21510;-70
2024/04/05 11:33:07;;;;;;;1.50;0.50;;;25.40;71.90;;;;;;2297739;54;21246;-73
2024/04/05 11:35:37;;;;;;;1.75;0.68;;;25.40;72.20;;;;;;2298164;54;21294;-70
2024/04/05 11:38:04;;;;;;;1.85;0.62;;;25.40;70.50;;;;;;2298296;55;20959;-70
2024/04/05 11:40:31;;;;;;;2.05;0.75;;;25.50;71.80;;;;;;2299029;54;21820;-71
2024/04/05 11:42:58;;;;;;;1.67;0.60;;;25.50;72.10;;;;;;2303686;54;20975;-71
2024/04/05 11:45:25;;;;;;;1.30;0.60;;;25.50;72.60;;;;;;2298540;54;21010;-71
2024/04/05 11:47:51;;;;;;;3.17;0.55;;;25.60;73.00;;;;;;2299114;54;20944;-70
2024/04/05 11:50:17;;;;;;;0.75;0.40;;;25.60;72.90;;;;;;2297987;54;21856;-70
2024/04/05 11:52:43;;;;;;;4.68;1.30;;;25.70;72.80;;;;;;2298950;54;21019;-71
2024/04/05 11:55:10;;;;;;;2.03;0.57;;;25.70;71.80;;;;;;2298815;54;21492;-71
2024/04/05 11:57:37;;;;;;;1.42;0.60;;;25.70;71.60;;;;;;2306958;54;21023;-70
2024/04/05 12:00:10;;;;;;;2.00;0.80;;;25.80;71.50;;;;;;2300317;54;20940;-71
2024/04/05 12:02:37;;;;;;;1.95;0.70;;;25.80;71.40;;;;;;2298785;54;21516;-70
2024/04/05 12:05:04;;;;;;;2.28;0.75;;;25.80;70.40;;;;;;2298244;54;21314;-71
2024/04/05 12:07:30;;;;;;;2.40;0.93;;;25.80;71.10;;;;;;2302139;54;20975;-71
2024/04/05 12:09:58;;;;;;;1.60;0.47;;;25.80;71.20;;;;;;2325447;55;21245;-71
2024/04/05 12:12:26;;;;;;;2.60;0.60;;;25.90;71.20;;;;;;2324104;55;20955;-71
2024/04/05 12:14:52;;;;;;;1.42;0.60;;;25.90;71.00;;;;;;2325314;55;20932;-70
2024/04/05 12:17:18;;;;;;;1.58;0.70;;;25.90;70.40;;;;;;2326604;55;21008;-70
2024/04/05 12:19:47;;;;;;;1.45;0.47;;;25.90;70.50;;;;;;2297323;54;21023;-71
2024/04/05 12:22:14;;;;;;;2.25;0.50;;;25.90;70.00;;;;;;2324230;55;21015;-74
2024/04/05 12:24:40;;;;;;;1.90;0.70;;;25.90;70.50;;;;;;2325852;55;21493;-70
2024/04/05 12:27:06;;;;;;;1.75;0.68;;;25.90;70.30;;;;;;2325681;55;20968;-71
2024/04/05 12:29:34;;;;;;;1.73;0.70;;;25.90;70.50;;;;;;2325512;55;20979;-71
2024/04/05 12:32:01;;;;;;;1.17;0.45;;;26.00;71.00;;;;;;2325415;55;21184;-70
2024/04/05 12:34:27;;;;;;;2.40;0.57;;;26.00;71.20;;;;;;2325067;55;20996;-71
2024/04/05 12:36:54;;;;;;;2.28;0.70;;;26.00;71.40;;;;;;2325359;55;21251;-71
2024/04/05 12:39:28;;;;;;;1.87;0.70;;;26.10;71.70;;;;;;2320036;54;21060;-72
2024/04/05 12:41:54;;;;;;;2.05;0.70;;;26.10;71.50;;;;;;2325015;55;21411;-70
2024/04/05 12:44:21;;;;;;;2.53;0.75;;;26.20;71.50;;;;;;2324642;55;21939;-72
2024/04/05 12:46:51;;;;;;;1.70;0.50;;;26.20;71.10;;;;;;2304316;54;21552;-71
2024/04/05 12:49:20;;;;;;;1.62;0.68;;;26.20;70.70;;;;;;2320148;54;21798;-71